sensor_id;sensor_type;location;lat;lon;timestamp;P1;durP1;ratioP1;P2;durP2;ratioP2
9708;SDS011;4893;42.024;23.098;2022-11-15T00:00:51;13.93;;;8.27;;
9708;SDS011;4893;42.024;23.098;2022-11-15T00:03:18;15.47;;;8.23;;
9708;SDS011;4893;42.024;23.098;2022-11-15T00:05:46;13.73;;;8.77;;
9708;SDS011;4893;42.024;23.098;2022-11-15T00:08:12;16.33;;;9.00;;
9708;SDS011;4893;42.024;23.098;2022-11-15T00:10:37;15.77;;;7.90;;
9708;SDS011;4893;42.024;23.098;2022-11-15T00:13:06;13.00;;;7.93;;
9708;SDS011;4893;42.024;23.098;2022-11-15T00:15:36;12.20;;;7.17;;
9708;SDS011;4893;42.024;23.098;2022-11-15T00:18:04;13.57;;;8.00;;
9708;SDS011;4893;42.024;23.098;2022-11-15T00:20:30;13.73;;;7.60;;
9708;SDS011;4893;42.024;23.098;2022-11-15T00:22:58;15.23;;;8.30;;
9708;SDS011;4893;42.024;23.098;2022-11-15T00:25:23;15.80;;;8.77;;
9708;SDS011;4893;42.024;23.098;2022-11-15T00:27:49;17.00;;;8.57;;
9708;SDS011;4893;42.024;23.098;2022-11-15T00:30:16;21.10;;;9.43;;
9708;SDS011;4893;42.024;23.098;2022-11-15T00:32:42;15.30;;;8.97;;
9708;SDS011;4893;42.024;23.098;2022-11-15T00:35:07;14.43;;;7.40;;
9708;SDS011;4893;42.024;23.098;2022-11-15T00:37:33;18.10;;;8.63;;
9708;SDS011;4893;42.024;23.098;2022-11-15T00:39:58;14.37;;;8.43;;
9708;SDS011;4893;42.024;23.098;2022-11-15T00:42:24;17.60;;;8.37;;
9708;SDS011;4893;42.024;23.098;2022-11-15T00:44:49;27.13;;;15.43;;
9708;SDS011;4893;42.024;23.098;2022-11-15T00:47:18;18.00;;;9.10;;
9708;SDS011;4893;42.024;23.098;2022-11-15T00:49:44;15.43;;;8.20;;
9708;SDS011;4893;42.024;23.098;2022-11-15T00:52:09;15.23;;;8.07;;
9708;SDS011;4893;42.024;23.098;2022-11-15T00:54:40;14.57;;;8.07;;
9708;SDS011;4893;42.024;23.098;2022-11-15T00:57:05;17.27;;;8.20;;
9708;SDS011;4893;42.024;23.098;2022-11-15T00:59:30;12.60;;;7.50;;
9708;SDS011;4893;42.024;23.098;2022-11-15T01:04:24;13.97;;;8.37;;
9708;SDS011;4893;42.024;23.098;2022-11-15T01:06:50;16.53;;;8.77;;
9708;SDS011;4893;42.024;23.098;2022-11-15T01:09:15;50.40;;;12.73;;
9708;SDS011;4893;42.024;23.098;2022-11-15T01:11:40;12.73;;;7.50;;
9708;SDS011;4893;42.024;23.098;2022-11-15T01:14:06;12.67;;;7.63;;
9708;SDS011;4893;42.024;23.098;2022-11-15T01:16:31;15.03;;;7.30;;
9708;SDS011;4893;42.024;23.098;2022-11-15T01:18:58;16.40;;;7.80;;
9708;SDS011;4893;42.024;23.098;2022-11-15T01:21:23;14.50;;;7.73;;
9708;SDS011;4893;42.024;23.098;2022-11-15T01:23:52;13.87;;;9.17;;
9708;SDS011;4893;42.024;23.098;2022-11-15T01:26:19;13.73;;;8.73;;
9708;SDS011;4893;42.024;23.098;2022-11-15T01:28:45;13.70;;;7.80;;
9708;SDS011;4893;42.024;23.098;2022-11-15T01:31:15;14.60;;;7.80;;
9708;SDS011;4893;42.024;23.098;2022-11-15T01:33:42;16.67;;;8.20;;
9708;SDS011;4893;42.024;23.098;2022-11-15T01:36:08;14.20;;;7.73;;
9708;SDS011;4893;42.024;23.098;2022-11-15T01:38:37;11.10;;;7.00;;
9708;SDS011;4893;42.024;23.098;2022-11-15T01:41:02;9.20;;;6.93;;
9708;SDS011;4893;42.024;23.098;2022-11-15T01:43:35;10.63;;;7.10;;
9708;SDS011;4893;42.024;23.098;2022-11-15T01:48:42;16.80;;;7.80;;
9708;SDS011;4893;42.024;23.098;2022-11-15T01:51:08;14.37;;;7.70;;
9708;SDS011;4893;42.024;23.098;2022-11-15T01:53:36;16.33;;;9.17;;
9708;SDS011;4893;42.024;23.098;2022-11-15T01:56:06;16.23;;;9.50;;
9708;SDS011;4893;42.024;23.098;2022-11-15T01:58:35;13.10;;;6.97;;
9708;SDS011;4893;42.024;23.098;2022-11-15T02:01:01;13.97;;;7.50;;
9708;SDS011;4893;42.024;23.098;2022-11-15T02:03:30;11.97;;;7.27;;
9708;SDS011;4893;42.024;23.098;2022-11-15T02:06:13;12.60;;;7.17;;
9708;SDS011;4893;42.024;23.098;2022-11-15T02:08:39;15.27;;;7.93;;
9708;SDS011;4893;42.024;23.098;2022-11-15T02:11:07;15.30;;;6.73;;
9708;SDS011;4893;42.024;23.098;2022-11-15T02:13:33;12.13;;;7.00;;
9708;SDS011;4893;42.024;23.098;2022-11-15T02:22:04;16.87;;;7.80;;
9708;SDS011;4893;42.024;23.098;2022-11-15T02:24:58;17.70;;;9.53;;
9708;SDS011;4893;42.024;23.098;2022-11-15T02:27:34;11.90;;;7.37;;
9708;SDS011;4893;42.024;23.098;2022-11-15T02:36:15;10.80;;;6.37;;
9708;SDS011;4893;42.024;23.098;2022-11-15T02:44:14;15.37;;;8.07;;
9708;SDS011;4893;42.024;23.098;2022-11-15T02:47:01;13.20;;;7.53;;
9708;SDS011;4893;42.024;23.098;2022-11-15T02:49:46;12.87;;;7.20;;
9708;SDS011;4893;42.024;23.098;2022-11-15T02:52:14;15.43;;;9.03;;
9708;SDS011;4893;42.024;23.098;2022-11-15T02:57:34;11.50;;;7.80;;
9708;SDS011;4893;42.024;23.098;2022-11-15T03:00:05;17.20;;;7.93;;
9708;SDS011;4893;42.024;23.098;2022-11-15T03:02:40;14.57;;;8.53;;
9708;SDS011;4893;42.024;23.098;2022-11-15T03:11:11;28.27;;;9.03;;
9708;SDS011;4893;42.024;23.098;2022-11-15T03:16:22;17.00;;;9.13;;
9708;SDS011;4893;42.024;23.098;2022-11-15T03:19:03;36.37;;;8.70;;
9708;SDS011;4893;42.024;23.098;2022-11-15T03:21:33;22.80;;;8.73;;
9708;SDS011;4893;42.024;23.098;2022-11-15T03:24:02;13.13;;;7.30;;
9708;SDS011;4893;42.024;23.098;2022-11-15T03:26:30;21.30;;;10.67;;
9708;SDS011;4893;42.024;23.098;2022-11-15T03:31:46;15.23;;;8.07;;
9708;SDS011;4893;42.024;23.098;2022-11-15T03:34:20;17.07;;;7.77;;
9708;SDS011;4893;42.024;23.098;2022-11-15T03:36:51;14.57;;;8.37;;
9708;SDS011;4893;42.024;23.098;2022-11-15T03:39:17;15.00;;;7.97;;
9708;SDS011;4893;42.024;23.098;2022-11-15T03:41:48;15.30;;;7.77;;
9708;SDS011;4893;42.024;23.098;2022-11-15T03:47:08;18.10;;;8.87;;
9708;SDS011;4893;42.024;23.098;2022-11-15T03:49:38;17.57;;;8.77;;
9708;SDS011;4893;42.024;23.098;2022-11-15T03:54:56;18.97;;;8.87;;
9708;SDS011;4893;42.024;23.098;2022-11-15T03:57:22;15.60;;;7.23;;
9708;SDS011;4893;42.024;23.098;2022-11-15T03:59:47;14.90;;;8.10;;
9708;SDS011;4893;42.024;23.098;2022-11-15T04:02:13;17.50;;;9.03;;
9708;SDS011;4893;42.024;23.098;2022-11-15T04:04:39;13.93;;;8.10;;
9708;SDS011;4893;42.024;23.098;2022-11-15T04:07:04;20.77;;;9.87;;
9708;SDS011;4893;42.024;23.098;2022-11-15T04:09:30;31.20;;;13.03;;
9708;SDS011;4893;42.024;23.098;2022-11-15T04:11:55;27.50;;;13.20;;
9708;SDS011;4893;42.024;23.098;2022-11-15T04:16:49;27.20;;;13.93;;
9708;SDS011;4893;42.024;23.098;2022-11-15T04:19:15;28.93;;;13.60;;
9708;SDS011;4893;42.024;23.098;2022-11-15T04:21:59;23.23;;;11.77;;
9708;SDS011;4893;42.024;23.098;2022-11-15T04:24:43;26.27;;;12.53;;
9708;SDS011;4893;42.024;23.098;2022-11-15T04:27:08;23.60;;;12.37;;
9708;SDS011;4893;42.024;23.098;2022-11-15T04:29:33;29.20;;;13.37;;
9708;SDS011;4893;42.024;23.098;2022-11-15T04:32:03;25.97;;;12.37;;
9708;SDS011;4893;42.024;23.098;2022-11-15T04:34:30;25.37;;;12.00;;
9708;SDS011;4893;42.024;23.098;2022-11-15T04:36:56;30.67;;;13.07;;
9708;SDS011;4893;42.024;23.098;2022-11-15T04:39:41;23.90;;;12.10;;
9708;SDS011;4893;42.024;23.098;2022-11-15T04:42:07;26.90;;;13.00;;
9708;SDS011;4893;42.024;23.098;2022-11-15T04:44:33;29.00;;;12.93;;
9708;SDS011;4893;42.024;23.098;2022-11-15T04:46:59;37.57;;;13.60;;
9708;SDS011;4893;42.024;23.098;2022-11-15T04:49:26;21.43;;;12.23;;
9708;SDS011;4893;42.024;23.098;2022-11-15T04:51:52;25.13;;;11.50;;
9708;SDS011;4893;42.024;23.098;2022-11-15T04:54:17;24.83;;;12.73;;
9708;SDS011;4893;42.024;23.098;2022-11-15T04:56:42;28.73;;;12.50;;
9708;SDS011;4893;42.024;23.098;2022-11-15T04:59:08;35.93;;;12.37;;
9708;SDS011;4893;42.024;23.098;2022-11-15T05:01:33;28.43;;;13.03;;
9708;SDS011;4893;42.024;23.098;2022-11-15T05:03:59;26.70;;;12.57;;
9708;SDS011;4893;42.024;23.098;2022-11-15T05:06:43;24.80;;;11.90;;
9708;SDS011;4893;42.024;23.098;2022-11-15T05:09:10;27.57;;;13.43;;
9708;SDS011;4893;42.024;23.098;2022-11-15T05:11:37;25.67;;;13.10;;
9708;SDS011;4893;42.024;23.098;2022-11-15T05:14:03;27.13;;;12.37;;
9708;SDS011;4893;42.024;23.098;2022-11-15T05:16:29;23.07;;;11.97;;
9708;SDS011;4893;42.024;23.098;2022-11-15T05:18:54;31.63;;;13.97;;
9708;SDS011;4893;42.024;23.098;2022-11-15T05:21:27;31.53;;;13.03;;
9708;SDS011;4893;42.024;23.098;2022-11-15T05:23:52;42.73;;;15.03;;
9708;SDS011;4893;42.024;23.098;2022-11-15T05:26:21;32.03;;;15.53;;
9708;SDS011;4893;42.024;23.098;2022-11-15T05:28:54;62.70;;;29.67;;
9708;SDS011;4893;42.024;23.098;2022-11-15T05:31:21;91.43;;;39.37;;
9708;SDS011;4893;42.024;23.098;2022-11-15T05:33:47;61.63;;;17.30;;
9708;SDS011;4893;42.024;23.098;2022-11-15T05:38:52;35.13;;;17.03;;
9708;SDS011;4893;42.024;23.098;2022-11-15T05:41:19;60.70;;;16.63;;
9708;SDS011;4893;42.024;23.098;2022-11-15T05:43:47;29.03;;;13.70;;
9708;SDS011;4893;42.024;23.098;2022-11-15T05:46:14;31.60;;;15.20;;
9708;SDS011;4893;42.024;23.098;2022-11-15T05:48:41;33.03;;;16.60;;
9708;SDS011;4893;42.024;23.098;2022-11-15T05:51:11;31.73;;;14.53;;
9708;SDS011;4893;42.024;23.098;2022-11-15T05:53:39;52.57;;;24.80;;
9708;SDS011;4893;42.024;23.098;2022-11-15T05:56:04;36.50;;;16.87;;
9708;SDS011;4893;42.024;23.098;2022-11-15T05:58:34;45.30;;;18.40;;
9708;SDS011;4893;42.024;23.098;2022-11-15T06:01:01;64.13;;;16.33;;
9708;SDS011;4893;42.024;23.098;2022-11-15T06:03:27;41.20;;;19.77;;
9708;SDS011;4893;42.024;23.098;2022-11-15T06:05:52;36.53;;;17.20;;
9708;SDS011;4893;42.024;23.098;2022-11-15T06:08:18;30.07;;;16.03;;
9708;SDS011;4893;42.024;23.098;2022-11-15T06:10:43;45.20;;;15.93;;
9708;SDS011;4893;42.024;23.098;2022-11-15T06:13:09;38.00;;;15.67;;
9708;SDS011;4893;42.024;23.098;2022-11-15T06:15:34;43.40;;;22.20;;
9708;SDS011;4893;42.024;23.098;2022-11-15T06:18:00;81.10;;;18.10;;
9708;SDS011;4893;42.024;23.098;2022-11-15T06:20:26;44.63;;;17.00;;
9708;SDS011;4893;42.024;23.098;2022-11-15T06:22:59;125.67;;;36.30;;
9708;SDS011;4893;42.024;23.098;2022-11-15T06:25:26;44.73;;;17.87;;
9708;SDS011;4893;42.024;23.098;2022-11-15T06:27:53;40.23;;;17.20;;
9708;SDS011;4893;42.024;23.098;2022-11-15T06:30:22;48.63;;;17.03;;
9708;SDS011;4893;42.024;23.098;2022-11-15T06:32:50;39.73;;;17.27;;
9708;SDS011;4893;42.024;23.098;2022-11-15T06:35:15;46.80;;;15.93;;
9708;SDS011;4893;42.024;23.098;2022-11-15T06:37:41;59.50;;;16.97;;
9708;SDS011;4893;42.024;23.098;2022-11-15T06:40:08;63.57;;;15.70;;
9708;SDS011;4893;42.024;23.098;2022-11-15T06:42:34;29.40;;;14.07;;
9708;SDS011;4893;42.024;23.098;2022-11-15T06:45:00;41.10;;;15.90;;
9708;SDS011;4893;42.024;23.098;2022-11-15T06:47:26;36.07;;;16.03;;
9708;SDS011;4893;42.024;23.098;2022-11-15T06:49:51;47.03;;;16.70;;
9708;SDS011;4893;42.024;23.098;2022-11-15T06:52:16;40.37;;;16.77;;
9708;SDS011;4893;42.024;23.098;2022-11-15T06:54:46;42.17;;;17.43;;
9708;SDS011;4893;42.024;23.098;2022-11-15T06:57:12;30.37;;;14.10;;
9708;SDS011;4893;42.024;23.098;2022-11-15T06:59:37;34.73;;;15.23;;
9708;SDS011;4893;42.024;23.098;2022-11-15T07:02:03;39.90;;;18.67;;
9708;SDS011;4893;42.024;23.098;2022-11-15T07:04:28;36.50;;;15.83;;
9708;SDS011;4893;42.024;23.098;2022-11-15T07:06:54;30.13;;;15.20;;
9708;SDS011;4893;42.024;23.098;2022-11-15T07:09:19;46.67;;;18.30;;
9708;SDS011;4893;42.024;23.098;2022-11-15T07:11:45;48.93;;;17.47;;
9708;SDS011;4893;42.024;23.098;2022-11-15T07:14:10;48.13;;;17.47;;
9708;SDS011;4893;42.024;23.098;2022-11-15T07:16:36;157.30;;;22.73;;
9708;SDS011;4893;42.024;23.098;2022-11-15T07:19:02;92.90;;;21.43;;
9708;SDS011;4893;42.024;23.098;2022-11-15T07:21:28;49.93;;;20.10;;
9708;SDS011;4893;42.024;23.098;2022-11-15T07:23:54;64.77;;;21.90;;
9708;SDS011;4893;42.024;23.098;2022-11-15T07:26:19;41.93;;;19.87;;
9708;SDS011;4893;42.024;23.098;2022-11-15T07:28:45;45.13;;;19.50;;
9708;SDS011;4893;42.024;23.098;2022-11-15T07:31:10;43.83;;;17.50;;
9708;SDS011;4893;42.024;23.098;2022-11-15T07:33:36;50.20;;;19.17;;
9708;SDS011;4893;42.024;23.098;2022-11-15T07:36:05;55.00;;;21.97;;
9708;SDS011;4893;42.024;23.098;2022-11-15T07:38:32;49.13;;;19.17;;
9708;SDS011;4893;42.024;23.098;2022-11-15T07:41:00;55.07;;;19.80;;
9708;SDS011;4893;42.024;23.098;2022-11-15T07:43:27;52.17;;;19.77;;
9708;SDS011;4893;42.024;23.098;2022-11-15T07:45:54;51.03;;;20.03;;
9708;SDS011;4893;42.024;23.098;2022-11-15T07:48:20;39.87;;;20.20;;
9708;SDS011;4893;42.024;23.098;2022-11-15T07:50:45;46.03;;;20.33;;
9708;SDS011;4893;42.024;23.098;2022-11-15T07:53:11;59.33;;;20.63;;
9708;SDS011;4893;42.024;23.098;2022-11-15T07:55:37;44.37;;;20.20;;
9708;SDS011;4893;42.024;23.098;2022-11-15T07:58:05;68.83;;;25.53;;
9708;SDS011;4893;42.024;23.098;2022-11-15T08:00:33;60.67;;;20.40;;
9708;SDS011;4893;42.024;23.098;2022-11-15T08:03:20;75.07;;;22.73;;
9708;SDS011;4893;42.024;23.098;2022-11-15T08:05:49;48.80;;;21.37;;
9708;SDS011;4893;42.024;23.098;2022-11-15T08:08:16;47.10;;;20.70;;
9708;SDS011;4893;42.024;23.098;2022-11-15T08:10:41;70.03;;;23.27;;
9708;SDS011;4893;42.024;23.098;2022-11-15T08:13:08;79.47;;;22.30;;
9708;SDS011;4893;42.024;23.098;2022-11-15T08:15:35;46.60;;;20.83;;
9708;SDS011;4893;42.024;23.098;2022-11-15T08:18:02;48.87;;;20.60;;
9708;SDS011;4893;42.024;23.098;2022-11-15T08:20:31;86.57;;;29.00;;
9708;SDS011;4893;42.024;23.098;2022-11-15T08:22:58;57.93;;;22.03;;
9708;SDS011;4893;42.024;23.098;2022-11-15T08:25:25;115.23;;;24.57;;
9708;SDS011;4893;42.024;23.098;2022-11-15T08:27:55;49.07;;;21.97;;
9708;SDS011;4893;42.024;23.098;2022-11-15T08:30:22;50.10;;;20.80;;
9708;SDS011;4893;42.024;23.098;2022-11-15T08:32:49;47.77;;;22.77;;
9708;SDS011;4893;42.024;23.098;2022-11-15T08:35:16;69.40;;;23.17;;
9708;SDS011;4893;42.024;23.098;2022-11-15T08:37:42;63.60;;;22.73;;
9708;SDS011;4893;42.024;23.098;2022-11-15T08:40:08;74.57;;;24.67;;
9708;SDS011;4893;42.024;23.098;2022-11-15T08:42:34;66.23;;;23.03;;
9708;SDS011;4893;42.024;23.098;2022-11-15T08:45:00;48.70;;;20.13;;
9708;SDS011;4893;42.024;23.098;2022-11-15T08:47:25;139.73;;;22.17;;
9708;SDS011;4893;42.024;23.098;2022-11-15T08:49:51;45.37;;;18.90;;
9708;SDS011;4893;42.024;23.098;2022-11-15T08:52:17;48.47;;;20.70;;
9708;SDS011;4893;42.024;23.098;2022-11-15T08:54:42;114.90;;;24.77;;
9708;SDS011;4893;42.024;23.098;2022-11-15T08:57:08;55.50;;;20.30;;
9708;SDS011;4893;42.024;23.098;2022-11-15T08:59:34;64.13;;;20.97;;
9708;SDS011;4893;42.024;23.098;2022-11-15T09:02:02;36.77;;;18.10;;
9708;SDS011;4893;42.024;23.098;2022-11-15T09:04:28;45.33;;;18.50;;
9708;SDS011;4893;42.024;23.098;2022-11-15T09:06:53;44.10;;;20.23;;
9708;SDS011;4893;42.024;23.098;2022-11-15T09:09:19;55.33;;;17.93;;
9708;SDS011;4893;42.024;23.098;2022-11-15T09:11:44;42.23;;;18.23;;
9708;SDS011;4893;42.024;23.098;2022-11-15T09:14:10;49.37;;;16.33;;
9708;SDS011;4893;42.024;23.098;2022-11-15T09:16:37;57.17;;;23.57;;
9708;SDS011;4893;42.024;23.098;2022-11-15T09:19:02;50.77;;;18.37;;
9708;SDS011;4893;42.024;23.098;2022-11-15T09:21:28;39.53;;;18.30;;
9708;SDS011;4893;42.024;23.098;2022-11-15T09:23:54;66.00;;;20.17;;
9708;SDS011;4893;42.024;23.098;2022-11-15T09:26:20;37.67;;;17.80;;
9708;SDS011;4893;42.024;23.098;2022-11-15T09:28:45;36.67;;;17.13;;
9708;SDS011;4893;42.024;23.098;2022-11-15T09:31:11;78.70;;;22.23;;
9708;SDS011;4893;42.024;23.098;2022-11-15T09:33:37;55.80;;;19.83;;
9708;SDS011;4893;42.024;23.098;2022-11-15T09:36:04;45.77;;;19.70;;
9708;SDS011;4893;42.024;23.098;2022-11-15T09:38:31;41.13;;;18.30;;
9708;SDS011;4893;42.024;23.098;2022-11-15T09:49:34;49.93;;;21.97;;
9708;SDS011;4893;42.024;23.098;2022-11-15T09:51:59;42.90;;;17.67;;
9708;SDS011;4893;42.024;23.098;2022-11-15T09:57:14;409.10;;;34.73;;
9708;SDS011;4893;42.024;23.098;2022-11-15T09:59:46;52.23;;;20.27;;
9708;SDS011;4893;42.024;23.098;2022-11-15T10:05:03;49.47;;;18.10;;
9708;SDS011;4893;42.024;23.098;2022-11-15T10:07:45;36.27;;;16.90;;
9708;SDS011;4893;42.024;23.098;2022-11-15T10:10:24;29.70;;;15.43;;
9708;SDS011;4893;42.024;23.098;2022-11-15T10:12:57;34.03;;;15.83;;
9708;SDS011;4893;42.024;23.098;2022-11-15T10:15:23;76.67;;;23.80;;
9708;SDS011;4893;42.024;23.098;2022-11-15T10:20:42;39.97;;;15.00;;
9708;SDS011;4893;42.024;23.098;2022-11-15T10:23:13;61.17;;;16.33;;
9708;SDS011;4893;42.024;23.098;2022-11-15T10:25:40;44.60;;;15.57;;
9708;SDS011;4893;42.024;23.098;2022-11-15T10:30:46;33.90;;;15.80;;
9708;SDS011;4893;42.024;23.098;2022-11-15T10:33:19;42.43;;;16.53;;
9708;SDS011;4893;42.024;23.098;2022-11-15T10:35:47;36.33;;;16.47;;
9708;SDS011;4893;42.024;23.098;2022-11-15T10:38:13;32.13;;;16.67;;
9708;SDS011;4893;42.024;23.098;2022-11-15T10:40:39;37.13;;;16.97;;
9708;SDS011;4893;42.024;23.098;2022-11-15T10:45:34;36.20;;;18.53;;
9708;SDS011;4893;42.024;23.098;2022-11-15T10:50:52;73.50;;;19.27;;
9708;SDS011;4893;42.024;23.098;2022-11-15T10:53:32;38.77;;;18.13;;
9708;SDS011;4893;42.024;23.098;2022-11-15T10:56:07;44.57;;;16.87;;
9708;SDS011;4893;42.024;23.098;2022-11-15T10:58:41;49.90;;;17.63;;
9708;SDS011;4893;42.024;23.098;2022-11-15T11:01:09;32.47;;;16.90;;
9708;SDS011;4893;42.024;23.098;2022-11-15T11:03:38;47.40;;;17.23;;
9708;SDS011;4893;42.024;23.098;2022-11-15T11:08:38;62.70;;;18.97;;
9708;SDS011;4893;42.024;23.098;2022-11-15T11:11:04;81.87;;;31.90;;
9708;SDS011;4893;42.024;23.098;2022-11-15T11:13:33;44.47;;;17.27;;
9708;SDS011;4893;42.024;23.098;2022-11-15T11:19:15;62.67;;;17.10;;
9708;SDS011;4893;42.024;23.098;2022-11-15T11:22:01;55.37;;;21.07;;
9708;SDS011;4893;42.024;23.098;2022-11-15T11:24:33;50.87;;;21.93;;
9708;SDS011;4893;42.024;23.098;2022-11-15T11:35:45;56.47;;;21.87;;
9708;SDS011;4893;42.024;23.098;2022-11-15T11:38:51;52.87;;;27.83;;
9708;SDS011;4893;42.024;23.098;2022-11-15T11:41:59;30.97;;;15.40;;
9708;SDS011;4893;42.024;23.098;2022-11-15T11:44:39;49.93;;;19.20;;
9708;SDS011;4893;42.024;23.098;2022-11-15T11:47:31;70.20;;;29.63;;
9708;SDS011;4893;42.024;23.098;2022-11-15T11:55:32;39.27;;;16.63;;
9708;SDS011;4893;42.024;23.098;2022-11-15T12:00:52;41.57;;;17.13;;
9708;SDS011;4893;42.024;23.098;2022-11-15T12:03:34;50.80;;;16.87;;
9708;SDS011;4893;42.024;23.098;2022-11-15T12:06:05;46.30;;;22.93;;
9708;SDS011;4893;42.024;23.098;2022-11-15T12:08:52;52.17;;;20.23;;
9708;SDS011;4893;42.024;23.098;2022-11-15T12:14:24;33.57;;;16.40;;
9708;SDS011;4893;42.024;23.098;2022-11-15T12:16:57;58.87;;;20.63;;
9708;SDS011;4893;42.024;23.098;2022-11-15T12:19:24;39.70;;;16.60;;
9708;SDS011;4893;42.024;23.098;2022-11-15T12:22:01;34.23;;;15.30;;
9708;SDS011;4893;42.024;23.098;2022-11-15T12:30:12;56.67;;;19.37;;
9708;SDS011;4893;42.024;23.098;2022-11-15T12:32:48;87.90;;;37.50;;
9708;SDS011;4893;42.024;23.098;2022-11-15T12:35:37;33.00;;;15.93;;
9708;SDS011;4893;42.024;23.098;2022-11-15T12:38:09;30.43;;;13.17;;
9708;SDS011;4893;42.024;23.098;2022-11-15T12:40:37;26.27;;;12.60;;
9708;SDS011;4893;42.024;23.098;2022-11-15T12:43:32;64.67;;;20.67;;
9708;SDS011;4893;42.024;23.098;2022-11-15T12:46:10;17.80;;;10.87;;
9708;SDS011;4893;42.024;23.098;2022-11-15T12:49:01;50.57;;;15.73;;
9708;SDS011;4893;42.024;23.098;2022-11-15T12:59:56;50.20;;;25.07;;
9708;SDS011;4893;42.024;23.098;2022-11-15T13:02:40;24.07;;;12.63;;
9708;SDS011;4893;42.024;23.098;2022-11-15T13:17:43;32.57;;;19.10;;
9708;SDS011;4893;42.024;23.098;2022-11-15T13:27:58;26.23;;;12.37;;
9708;SDS011;4893;42.024;23.098;2022-11-15T13:30:26;55.33;;;23.80;;
9708;SDS011;4893;42.024;23.098;2022-11-15T13:32:54;82.43;;;21.83;;
9708;SDS011;4893;42.024;23.098;2022-11-15T13:35:21;18.60;;;11.63;;
9708;SDS011;4893;42.024;23.098;2022-11-15T13:37:51;17.80;;;11.23;;
9708;SDS011;4893;42.024;23.098;2022-11-15T13:40:29;122.83;;;23.27;;
9708;SDS011;4893;42.024;23.098;2022-11-15T13:43:00;29.87;;;13.60;;
9708;SDS011;4893;42.024;23.098;2022-11-15T13:48:45;24.67;;;12.23;;
9708;SDS011;4893;42.024;23.098;2022-11-15T13:51:17;37.00;;;12.27;;
9708;SDS011;4893;42.024;23.098;2022-11-15T13:53:52;24.97;;;11.53;;
9708;SDS011;4893;42.024;23.098;2022-11-15T13:56:23;25.07;;;12.77;;
9708;SDS011;4893;42.024;23.098;2022-11-15T13:58:51;25.83;;;13.57;;
9708;SDS011;4893;42.024;23.098;2022-11-15T14:01:18;24.67;;;12.93;;
9708;SDS011;4893;42.024;23.098;2022-11-15T14:03:50;20.33;;;12.20;;
9708;SDS011;4893;42.024;23.098;2022-11-15T14:06:22;205.17;;;18.00;;
9708;SDS011;4893;42.024;23.098;2022-11-15T14:11:33;17.70;;;11.67;;
9708;SDS011;4893;42.024;23.098;2022-11-15T14:16:34;64.83;;;15.77;;
9708;SDS011;4893;42.024;23.098;2022-11-15T14:24:46;28.63;;;16.20;;
9708;SDS011;4893;42.024;23.098;2022-11-15T14:27:44;29.30;;;14.87;;
9708;SDS011;4893;42.024;23.098;2022-11-15T14:30:29;22.37;;;11.77;;
9708;SDS011;4893;42.024;23.098;2022-11-15T14:32:54;25.67;;;12.33;;
9708;SDS011;4893;42.024;23.098;2022-11-15T14:35:26;65.27;;;15.03;;
9708;SDS011;4893;42.024;23.098;2022-11-15T14:37:51;25.63;;;12.03;;
9708;SDS011;4893;42.024;23.098;2022-11-15T14:40:18;31.47;;;12.57;;
9708;SDS011;4893;42.024;23.098;2022-11-15T14:42:46;28.90;;;13.13;;
9708;SDS011;4893;42.024;23.098;2022-11-15T14:45:14;30.73;;;13.37;;
9708;SDS011;4893;42.024;23.098;2022-11-15T14:47:44;85.37;;;14.40;;
9708;SDS011;4893;42.024;23.098;2022-11-15T14:50:11;78.67;;;16.93;;
9708;SDS011;4893;42.024;23.098;2022-11-15T14:52:42;73.30;;;16.33;;
9708;SDS011;4893;42.024;23.098;2022-11-15T14:55:23;35.27;;;15.37;;
9708;SDS011;4893;42.024;23.098;2022-11-15T14:57:50;25.57;;;15.13;;
9708;SDS011;4893;42.024;23.098;2022-11-15T15:00:19;44.20;;;15.77;;
9708;SDS011;4893;42.024;23.098;2022-11-15T15:02:46;32.40;;;15.80;;
9708;SDS011;4893;42.024;23.098;2022-11-15T15:05:14;70.67;;;23.77;;
9708;SDS011;4893;42.024;23.098;2022-11-15T15:10:36;52.57;;;16.20;;
9708;SDS011;4893;42.024;23.098;2022-11-15T15:13:04;47.57;;;16.90;;
9708;SDS011;4893;42.024;23.098;2022-11-15T15:15:34;33.50;;;15.47;;
9708;SDS011;4893;42.024;23.098;2022-11-15T15:18:02;34.70;;;17.30;;
9708;SDS011;4893;42.024;23.098;2022-11-15T15:20:29;42.57;;;19.63;;
9708;SDS011;4893;42.024;23.098;2022-11-15T15:22:55;47.13;;;19.30;;
9708;SDS011;4893;42.024;23.098;2022-11-15T15:25:38;82.70;;;25.40;;
9708;SDS011;4893;42.024;23.098;2022-11-15T15:28:05;45.73;;;18.97;;
9708;SDS011;4893;42.024;23.098;2022-11-15T15:30:30;50.50;;;19.70;;
9708;SDS011;4893;42.024;23.098;2022-11-15T15:33:04;50.53;;;18.33;;
9708;SDS011;4893;42.024;23.098;2022-11-15T15:35:30;53.00;;;22.20;;
9708;SDS011;4893;42.024;23.098;2022-11-15T15:37:58;61.97;;;25.80;;
9708;SDS011;4893;42.024;23.098;2022-11-15T15:40:24;33.97;;;18.83;;
9708;SDS011;4893;42.024;23.098;2022-11-15T15:42:52;51.07;;;21.10;;
9708;SDS011;4893;42.024;23.098;2022-11-15T15:45:18;55.07;;;29.60;;
9708;SDS011;4893;42.024;23.098;2022-11-15T15:47:44;39.30;;;21.80;;
9708;SDS011;4893;42.024;23.098;2022-11-15T15:52:48;60.60;;;20.83;;
9708;SDS011;4893;42.024;23.098;2022-11-15T15:55:15;51.43;;;24.70;;
9708;SDS011;4893;42.024;23.098;2022-11-15T15:57:40;56.80;;;17.70;;
9708;SDS011;4893;42.024;23.098;2022-11-15T16:00:06;41.13;;;17.07;;
9708;SDS011;4893;42.024;23.098;2022-11-15T16:02:32;50.43;;;25.07;;
9708;SDS011;4893;42.024;23.098;2022-11-15T16:04:57;51.37;;;22.37;;
9708;SDS011;4893;42.024;23.098;2022-11-15T16:07:24;76.63;;;30.13;;
9708;SDS011;4893;42.024;23.098;2022-11-15T16:09:50;116.53;;;32.93;;
9708;SDS011;4893;42.024;23.098;2022-11-15T16:12:34;35.57;;;16.70;;
9708;SDS011;4893;42.024;23.098;2022-11-15T16:15:00;32.30;;;15.97;;
9708;SDS011;4893;42.024;23.098;2022-11-15T16:17:28;26.40;;;14.97;;
9708;SDS011;4893;42.024;23.098;2022-11-15T16:19:57;34.63;;;14.07;;
9708;SDS011;4893;42.024;23.098;2022-11-15T16:22:22;42.83;;;15.87;;
9708;SDS011;4893;42.024;23.098;2022-11-15T16:24:48;33.57;;;14.57;;
9708;SDS011;4893;42.024;23.098;2022-11-15T16:27:18;26.70;;;14.90;;
9708;SDS011;4893;42.024;23.098;2022-11-15T16:29:45;29.57;;;14.03;;
9708;SDS011;4893;42.024;23.098;2022-11-15T16:32:11;41.43;;;16.73;;
9708;SDS011;4893;42.024;23.098;2022-11-15T16:34:37;36.27;;;17.83;;
9708;SDS011;4893;42.024;23.098;2022-11-15T16:37:03;30.27;;;16.37;;
9708;SDS011;4893;42.024;23.098;2022-11-15T16:39:29;25.70;;;14.13;;
9708;SDS011;4893;42.024;23.098;2022-11-15T16:41:56;22.53;;;14.13;;
9708;SDS011;4893;42.024;23.098;2022-11-15T16:44:22;47.70;;;14.20;;
9708;SDS011;4893;42.024;23.098;2022-11-15T16:46:49;34.23;;;14.77;;
9708;SDS011;4893;42.024;23.098;2022-11-15T16:49:16;31.90;;;17.63;;
9708;SDS011;4893;42.024;23.098;2022-11-15T16:51:42;43.47;;;17.20;;
9708;SDS011;4893;42.024;23.098;2022-11-15T16:54:10;31.40;;;17.53;;
9708;SDS011;4893;42.024;23.098;2022-11-15T16:56:36;46.27;;;14.77;;
9708;SDS011;4893;42.024;23.098;2022-11-15T16:59:02;50.43;;;18.07;;
9708;SDS011;4893;42.024;23.098;2022-11-15T17:01:31;32.03;;;15.87;;
9708;SDS011;4893;42.024;23.098;2022-11-15T17:03:59;54.07;;;15.80;;
9708;SDS011;4893;42.024;23.098;2022-11-15T17:06:39;29.07;;;15.00;;
9708;SDS011;4893;42.024;23.098;2022-11-15T17:09:18;31.23;;;14.47;;
9708;SDS011;4893;42.024;23.098;2022-11-15T17:11:48;82.23;;;34.90;;
9708;SDS011;4893;42.024;23.098;2022-11-15T17:14:14;34.90;;;15.80;;
9708;SDS011;4893;42.024;23.098;2022-11-15T17:16:40;102.13;;;44.07;;
9708;SDS011;4893;42.024;23.098;2022-11-15T17:19:13;73.97;;;29.33;;
9708;SDS011;4893;42.024;23.098;2022-11-15T17:21:43;51.23;;;21.87;;